Time;durP1;ratioP1;P1;durP2;ratioP2;P2;SDS_P1;SDS_P2;PMS_P1;PMS_P2;Temp;Humidity;BMP_temperature;BMP_pressure;BME280_temperature;BME280_humidity;BME280_pressure;Samples;Min_cycle;Max_cycle;Signal;HPM_P1;HPM_P2
2023/09/23 00:00:14;;;;;;;37.97;15.07;;;25.60;94.20;;;;;;5021577;28;20044;-77
2023/09/23 00:03:18;;;;;;;49.20;16.35;;;25.60;94.40;;;;;;5021214;28;20052;-76
2023/09/23 00:06:22;;;;;;;46.15;15.25;;;25.60;94.20;;;;;;5033217;28;20044;-76
2023/09/23 00:09:26;;;;;;;45.80;15.50;;;25.50;94.30;;;;;;5033565;28;20044;-76
2023/09/23 00:12:30;;;;;;;46.83;15.43;;;25.60;94.00;;;;;;5033682;28;20048;-76
2023/09/23 00:15:35;;;;;;;51.85;14.95;;;25.60;94.50;;;;;;5033341;28;20161;-76
2023/09/23 00:18:43;;;;;;;44.85;14.57;;;25.60;94.20;;;;;;5033203;28;20635;-75
2023/09/23 00:21:49;;;;;;;53.78;16.02;;;25.60;94.40;;;;;;5033416;28;20414;-76
2023/09/23 00:24:54;;;;;;;40.90;14.98;;;25.60;94.40;;;;;;5033417;28;20052;-76
2023/09/23 00:27:58;;;;;;;55.83;16.50;;;25.70;94.20;;;;;;5033294;28;20073;-76
2023/09/23 00:31:11;;;;;;;45.25;15.38;;;25.60;94.40;;;;;;5033183;28;20048;-76
2023/09/23 00:34:16;;;;;;;44.03;16.23;;;25.70;94.30;;;;;;5009707;28;20049;-76
2023/09/23 00:37:20;;;;;;;41.55;15.45;;;;;;;;;;5020634;28;20040;-76
2023/09/23 00:40:27;;;;;;;45.85;15.05;;;25.60;94.20;;;;;;5032923;28;20393;-76
2023/09/23 00:43:32;;;;;;;39.47;14.93;;;25.60;94.50;;;;;;5009374;28;20053;-76
2023/09/23 00:46:37;;;;;;;46.30;14.77;;;25.70;94.30;;;;;;5032764;28;20041;-76
2023/09/23 00:49:45;;;;;;;43.45;14.50;;;25.70;94.00;;;;;;5020317;28;20401;-76
2023/09/23 00:52:53;;;;;;;38.55;14.43;;;25.90;93.90;;;;;;5020542;28;20040;-76
2023/09/23 00:56:00;;;;;;;42.03;14.02;;;25.90;93.80;;;;;;5032215;28;20052;-76
2023/09/23 00:59:07;;;;;;;40.83;12.68;;;25.90;93.80;;;;;;5020376;28;20044;-76
2023/09/23 01:02:13;;;;;;;48.58;14.73;;;25.90;94.00;;;;;;5031526;28;20048;-76
2023/09/23 01:05:18;;;;;;;34.95;12.90;;;25.90;94.30;;;;;;5032438;28;20049;-76
2023/09/23 01:08:29;;;;;;;41.85;14.88;;;25.90;94.40;;;;;;5032474;28;20507;-76
2023/09/23 01:11:35;;;;;;;36.45;13.02;;;25.90;94.80;;;;;;5032343;28;20053;-76
2023/09/23 01:14:39;;;;;;;46.15;13.45;;;25.90;94.90;;;;;;5032464;28;20041;-76
2023/09/23 01:17:45;;;;;;;45.75;13.80;;;25.90;94.90;;;;;;5019748;28;20642;-76
2023/09/23 01:20:54;;;;;;;44.90;12.85;;;26.50;95.20;;;;;;5020044;28;20064;-76
2023/09/23 01:23:57;;;;;;;43.95;14.70;;;25.90;95.00;;;;;;5032032;28;20057;-76
2023/09/23 01:27:03;;;;;;;44.30;13.25;;;25.80;94.90;;;;;;5031826;28;20040;-76
2023/09/23 01:30:08;;;;;;;41.03;12.02;;;25.60;95.00;;;;;;5031945;28;20511;-76
2023/09/23 01:33:13;;;;;;;34.47;12.60;;;26.80;95.50;;;;;;5008582;28;20052;-76
2023/09/23 01:36:17;;;;;;;32.75;12.23;;;25.60;95.30;;;;;;5019506;28;20044;-76
2023/09/23 01:39:23;;;;;;;41.83;12.95;;;25.70;95.40;;;;;;5031803;28;20052;-76
2023/09/23 01:42:30;;;;;;;35.50;12.23;;;25.70;95.50;;;;;;5031313;28;20045;-76
2023/09/23 01:45:34;;;;;;;45.22;12.43;;;25.70;95.50;;;;;;5031909;28;20532;-76
2023/09/23 01:48:41;;;;;;;46.13;12.70;;;25.70;95.50;;;;;;5031881;28;20045;-76
2023/09/23 01:51:46;;;;;;;48.47;12.75;;;25.80;95.60;;;;;;5019429;28;20129;-76
2023/09/23 01:54:50;;;;;;;42.65;12.90;;;25.60;95.80;;;;;;5031375;28;20049;-76
2023/09/23 01:57:55;;;;;;;43.33;11.80;;;27.10;96.60;;;;;;5031267;28;20048;-75
2023/09/23 02:00:58;;;;;;;36.22;11.43;;;25.50;95.80;;;;;;5019350;28;20109;-75
2023/09/23 02:04:04;;;;;;;37.25;11.35;;;25.50;96.00;;;;;;5018931;28;20057;-76
2023/09/23 02:07:10;;;;;;;40.30;11.50;;;25.50;95.40;;;;;;5031590;28;20044;-76
2023/09/23 02:10:17;;;;;;;46.85;11.88;;;25.50;95.20;;;;;;5019238;28;20044;-76
2023/09/23 02:13:21;;;;;;;35.25;11.18;;;25.50;94.90;;;;;;5018742;28;20060;-76
2023/09/23 02:16:25;;;;;;;35.30;11.00;;;25.50;94.80;;;;;;5031067;28;20076;-76
2023/09/23 02:19:29;;;;;;;43.88;12.45;;;25.50;95.10;;;;;;5031498;28;20040;-76
2023/09/23 02:22:33;;;;;;;49.20;12.43;;;25.50;95.40;;;;;;5031101;28;20048;-76
2023/09/23 02:25:37;;;;;;;34.00;12.13;;;25.70;95.80;;;;;;5031065;28;20048;-76
2023/09/23 02:28:41;;;;;;;37.45;11.32;;;25.50;96.00;;;;;;5007400;28;20040;-76
2023/09/23 02:31:47;;;;;;;35.20;10.45;;;25.60;96.10;;;;;;5018794;28;20056;-76
2023/09/23 02:34:52;;;;;;;31.20;9.77;;;25.60;96.10;;;;;;5031162;28;20048;-76
2023/09/23 02:37:56;;;;;;;31.52;10.38;;;25.60;96.30;;;;;;5018712;28;20048;-76
2023/09/23 02:41:04;;;;;;;39.33;11.55;;;25.70;96.20;;;;;;5031086;28;20188;-76
2023/09/23 02:44:08;;;;;;;35.70;9.88;;;25.70;96.50;;;;;;5018804;28;20076;-76
2023/09/23 02:47:11;;;;;;;38.67;10.32;;;25.60;96.70;;;;;;5030935;28;20048;-76
2023/09/23 02:50:17;;;;;;;36.92;10.65;;;25.60;96.40;;;;;;5031193;28;20405;-77
2023/09/23 02:53:21;;;;;;;34.53;10.98;;;25.60;96.10;;;;;;5018556;28;20048;-76
2023/09/23 02:56:25;;;;;;;33.45;10.68;;;25.60;96.40;;;;;;5030853;28;20036;-76
2023/09/23 02:59:31;;;;;;;31.95;10.93;;;25.50;96.60;;;;;;5018572;28;20052;-77
2023/09/23 03:02:38;;;;;;;43.50;10.82;;;25.50;96.70;;;;;;5030682;28;20500;-77
2023/09/23 03:05:54;;;;;;;36.28;10.82;;;25.30;96.60;;;;;;5018474;28;20052;-76
2023/09/23 03:09:01;;;;;;;34.08;9.68;;;25.30;96.80;;;;;;5031124;28;20044;-76
2023/09/23 03:12:05;;;;;;;24.27;8.18;;;25.30;96.80;;;;;;5030831;28;20088;-76
2023/09/23 03:15:20;;;;;;;35.83;9.00;;;25.10;96.30;;;;;;5030351;28;20061;-76
2023/09/23 03:18:42;;;;;;;31.80;8.32;;;25.20;96.10;;;;;;5030744;28;20047;-76
2023/09/23 03:21:46;;;;;;;39.35;9.68;;;25.20;96.20;;;;;;5030465;28;20061;-76
2023/09/23 03:24:50;;;;;;;31.35;9.32;;;25.20;96.40;;;;;;5008473;28;20052;-76
2023/09/23 03:27:55;;;;;;;41.40;9.70;;;25.10;96.60;;;;;;5021817;28;20547;-76
2023/09/23 03:31:01;;;;;;;39.53;10.98;;;25.10;96.70;;;;;;5034224;28;20044;-76
2023/09/23 03:34:05;;;;;;;34.63;9.95;;;25.00;97.00;;;;;;5021966;28;20121;-76
2023/09/23 03:37:10;;;;;;;29.23;9.40;;;24.90;97.20;;;;;;5021850;28;20052;-76
2023/09/23 03:40:15;;;;;;;42.45;9.38;;;24.90;96.90;;;;;;5021820;28;20678;-76
2023/09/23 03:43:21;;;;;;;23.65;7.60;;;25.00;97.20;;;;;;5021699;28;20052;-76
2023/09/23 03:46:25;;;;;;;28.77;7.40;;;25.00;97.10;;;;;;5021375;28;20037;-76
2023/09/23 03:49:31;;;;;;;30.42;7.63;;;25.00;96.90;;;;;;5021284;28;20405;-76
2023/09/23 03:52:35;;;;;;;26.35;6.85;;;25.30;97.10;;;;;;5021728;28;20049;-75
2023/09/23 03:55:40;;;;;;;29.48;8.48;;;25.00;96.90;;;;;;5021720;28;20511;-76
2023/09/23 03:58:44;;;;;;;27.35;6.93;;;24.90;96.30;;;;;;5010531;28;20040;-76
2023/09/23 04:01:48;;;;;;;27.40;7.25;;;24.90;96.50;;;;;;5021258;28;20052;-76
2023/09/23 04:04:53;;;;;;;31.63;6.38;;;24.90;96.30;;;;;;5021249;28;20512;-76
2023/09/23 04:07:58;;;;;;;20.38;5.28;;;24.90;96.20;;;;;;5021317;28;20049;-76
2023/09/23 04:11:05;;;;;;;25.05;5.90;;;24.90;95.80;;;;;;5021013;28;20045;-76
2023/09/23 04:14:12;;;;;;;24.40;5.53;;;24.80;95.80;;;;;;5021233;28;20041;-76
2023/09/23 04:17:16;;;;;;;25.30;5.85;;;24.80;95.90;;;;;;5021269;28;20048;-76
2023/09/23 04:20:20;;;;;;;21.85;5.45;;;24.80;96.10;;;;;;5021333;28;20380;-76
2023/09/23 04:23:24;;;;;;;28.40;6.65;;;24.90;96.20;;;;;;5033323;28;20049;-76
2023/09/23 04:26:28;;;;;;;24.65;5.63;;;24.90;95.80;;;;;;5033179;28;20045;-76
2023/09/23 04:29:32;;;;;;;29.05;5.68;;;24.90;95.70;;;;;;5033406;28;20512;-75
2023/09/23 04:32:39;;;;;;;23.45;6.53;;;24.80;95.60;;;;;;5032808;28;20048;-75
2023/09/23 04:35:42;;;;;;;25.15;6.35;;;25.10;96.10;;;;;;5032891;28;20396;-76
2023/09/23 04:38:48;;;;;;;23.27;6.25;;;24.70;96.00;;;;;;5033033;28;20592;-75
2023/09/23 04:41:51;;;;;;;19.05;5.93;;;24.70;96.20;;;;;;5033046;28;20056;-75
2023/09/23 04:44:55;;;;;;;32.55;6.82;;;24.70;96.30;;;;;;5032725;28;20076;-75
2023/09/23 04:48:00;;;;;;;28.75;6.93;;;25.00;96.50;;;;;;5032829;28;20040;-75
2023/09/23 04:51:08;;;;;;;31.52;6.68;;;24.60;96.40;;;;;;5032498;28;20056;-76
2023/09/23 04:54:13;;;;;;;28.20;7.40;;;24.70;96.50;;;;;;5020497;28;20045;-76
2023/09/23 04:57:17;;;;;;;28.05;8.30;;;24.60;96.60;;;;;;5032371;28;20048;-76
2023/09/23 05:00:21;;;;;;;28.02;8.55;;;24.50;97.10;;;;;;5032383;28;20048;-76
2023/09/23 05:03:25;;;;;;;31.25;9.23;;;24.50;97.20;;;;;;5032430;28;20052;-76
2023/09/23 05:06:29;;;;;;;27.52;9.35;;;24.30;97.40;;;;;;5032203;28;20049;-76
2023/09/23 05:09:37;;;;;;;38.13;9.85;;;24.30;98.20;;;;;;5032366;28;20044;-76
2023/09/23 05:12:41;;;;;;;26.73;8.68;;;24.30;98.00;;;;;;5031934;28;20040;-76
2023/09/23 05:15:45;;;;;;;33.28;9.23;;;24.30;98.20;;;;;;5032012;28;20052;-76
2023/09/23 05:18:49;;;;;;;33.45;11.65;;;24.30;98.60;;;;;;5032212;28;20048;-75
2023/09/23 05:21:53;;;;;;;37.13;10.70;;;24.20;98.80;;;;;;5032124;28;20064;-76
2023/09/23 05:24:57;;;;;;;39.08;13.80;;;24.10;99.00;;;;;;5019605;28;20057;-76
2023/09/23 05:28:03;;;;;;;38.67;13.93;;;24.00;99.70;;;;;;5031767;28;20140;-76
2023/09/23 05:31:08;;;;;;;38.97;12.52;;;23.90;99.80;;;;;;5032073;28;20052;-76
2023/09/23 05:34:15;;;;;;;37.15;11.82;;;23.90;99.90;;;;;;5031925;28;20032;-75
2023/09/23 05:37:19;;;;;;;40.58;11.68;;;23.90;99.90;;;;;;5031772;28;20052;-75
2023/09/23 05:43:26;;;;;;;50.20;13.38;;;24.10;99.80;;;;;;5031707;28;20049;-75
2023/09/23 05:46:30;;;;;;;51.08;13.07;;;24.20;99.90;;;;;;5031349;28;20412;-75
2023/09/23 05:49:34;;;;;;;46.65;14.80;;;24.20;99.90;;;;;;5031339;28;20544;-76
2023/09/23 05:52:39;;;;;;;37.63;12.27;;;24.10;99.90;;;;;;5031490;28;20507;-76
2023/09/23 05:55:43;;;;;;;42.80;11.75;;;25.40;99.90;;;;;;5031482;28;20044;-76
2023/09/23 05:58:50;;;;;;;44.40;13.05;;;24.10;99.90;;;;;;5031582;28;20068;-75
2023/09/23 06:01:54;;;;;;;35.42;11.88;;;24.20;99.90;;;;;;5031155;28;20044;-70
2023/09/23 06:05:01;;;;;;;26.75;11.05;;;23.60;99.90;;;;;;5030950;28;20056;-69
2023/09/23 06:08:05;;;;;;;46.67;12.23;;;24.30;99.90;;;;;;5031434;28;20048;-70
2023/09/23 06:11:11;;;;;;;55.97;12.32;;;24.40;99.90;;;;;;5031392;28;20515;-69
2023/09/23 06:14:14;;;;;;;49.15;13.95;;;24.50;99.90;;;;;;5031275;28;20052;-69
2023/09/23 06:17:18;;;;;;;44.47;12.85;;;25.50;99.90;;;;;;5031198;28;20056;-70
2023/09/23 06:20:22;;;;;;;44.13;12.95;;;24.70;99.90;;;;;;5031267;28;20045;-69
2023/09/23 06:23:26;;;;;;;40.92;14.90;;;24.80;99.90;;;;;;5030974;28;20366;-68
2023/09/23 06:26:30;;;;;;;39.22;13.55;;;24.80;99.90;;;;;;5031034;28;20056;-69
2023/09/23 06:29:37;;;;;;;43.35;12.32;;;24.60;99.90;;;;;;5018655;28;20037;-69
2023/09/23 06:32:44;;;;;;;44.40;15.00;;;24.80;99.90;;;;;;5018674;28;20052;-66
2023/09/23 06:35:49;;;;;;;46.00;13.80;;;24.80;99.90;;;;;;5030555;28;20040;-67
2023/09/23 06:38:53;;;;;;;44.72;14.50;;;24.80;99.90;;;;;;5030705;28;20056;-66
2023/09/23 06:41:58;;;;;;;35.53;11.73;;;24.80;99.90;;;;;;5030855;28;20040;-67
2023/09/23 06:45:06;;;;;;;43.55;14.27;;;24.90;99.90;;;;;;5030490;28;20060;-65
2023/09/23 06:48:10;;;;;;;40.45;10.77;;;24.90;99.90;;;;;;5030869;28;20036;-67
2023/09/23 06:51:14;;;;;;;36.63;11.25;;;24.90;99.90;;;;;;5018302;28;20068;-66
2023/09/23 06:54:17;;;;;;;42.38;9.73;;;25.00;99.90;;;;;;5030649;28;20037;-66
2023/09/23 06:57:24;;;;;;;27.13;9.25;;;25.00;99.90;;;;;;5030437;28;20041;-67
2023/09/23 07:00:28;;;;;;;30.58;9.40;;;25.10;99.90;;;;;;5033613;28;20044;-66
2023/09/23 07:03:32;;;;;;;34.28;10.93;;;25.10;99.90;;;;;;5034458;28;20052;-67
2023/09/23 07:06:36;;;;;;;42.60;12.40;;;25.10;99.90;;;;;;5034798;28;20396;-67
2023/09/23 07:09:40;;;;;;;36.45;9.93;;;24.60;99.90;;;;;;5034418;28;20045;-72
2023/09/23 07:12:44;;;;;;;36.17;9.63;;;25.10;99.90;;;;;;5034315;28;20041;-65
2023/09/23 07:15:48;;;;;;;37.85;10.27;;;25.10;99.90;;;;;;5034462;28;20048;-66
2023/09/23 07:18:53;;;;;;;29.50;8.73;;;25.20;99.90;;;;;;5034597;28;20066;-65
2023/09/23 07:21:57;;;;;;;27.52;7.57;;;26.10;99.90;;;;;;5034576;28;20068;-65
2023/09/23 07:25:03;;;;;;;25.23;8.30;;;23.80;98.80;;;;;;5034192;28;20060;-65
2023/09/23 07:28:07;;;;;;;25.70;6.95;;;25.10;98.60;;;;;;5034340;28;20045;-65
2023/09/23 07:31:12;;;;;;;22.00;6.80;;;25.10;98.50;;;;;;5034007;28;20049;-66
2023/09/23 07:34:16;;;;;;;16.35;6.57;;;25.30;98.60;;;;;;5034345;28;20543;-65
2023/09/23 07:37:20;;;;;;;38.78;10.30;;;25.50;98.00;;;;;;5034132;28;20056;-65
2023/09/23 07:40:24;;;;;;;35.78;9.15;;;25.50;98.30;;;;;;5033928;28;20041;-65
2023/09/23 07:43:28;;;;;;;28.48;8.90;;;25.60;98.90;;;;;;5033752;28;20519;-69
2023/09/23 07:46:32;;;;;;;27.95;8.98;;;25.70;99.00;;;;;;5033596;28;20064;-66
2023/09/23 07:49:36;;;;;;;29.92;9.52;;;25.70;99.10;;;;;;5033352;28;20048;-68
2023/09/23 07:52:44;;;;;;;28.02;9.55;;;25.80;99.00;;;;;;5033376;28;20050;-67
2023/09/23 07:55:51;;;;;;;31.33;8.93;;;25.80;98.80;;;;;;5033194;28;20044;-66
2023/09/23 07:58:56;;;;;;;21.20;7.88;;;25.70;98.60;;;;;;5033367;28;20496;-64
2023/09/23 08:02:00;;;;;;;23.88;6.45;;;24.80;98.00;;;;;;5033337;28;20068;-66
2023/09/23 08:05:07;;;;;;;25.92;3.33;;;25.20;94.00;;;;;;5033385;28;20052;-66
2023/09/23 08:08:12;;;;;;;16.25;2.63;;;25.00;92.50;;;;;;5033393;28;20036;-66
2023/09/23 08:11:16;;;;;;;12.13;2.92;;;24.80;92.70;;;;;;5031517;28;20116;-66
2023/09/23 08:14:20;;;;;;;10.85;2.47;;;24.30;92.10;;;;;;5032320;28;20044;-65
2023/09/23 08:17:24;;;;;;;11.93;2.00;;;23.70;92.20;;;;;;5032743;28;20045;-67
2023/09/23 08:20:27;;;;;;;14.23;2.05;;;23.20;93.30;;;;;;5020302;28;20052;-67
2023/09/23 08:23:32;;;;;;;11.50;2.42;;;22.60;93.30;;;;;;5032623;28;20147;-68
2023/09/23 08:26:36;;;;;;;11.40;2.53;;;22.30;95.20;;;;;;5031795;28;20055;-67
2023/09/23 08:29:40;;;;;;;11.35;3.00;;;22.20;95.90;;;;;;5031691;28;20696;-67
2023/09/23 08:32:45;;;;;;;12.07;2.95;;;22.20;95.80;;;;;;5019894;28;20040;-66
2023/09/23 08:35:49;;;;;;;21.88;4.55;;;22.20;95.80;;;;;;5032284;28;20060;-66
2023/09/23 08:38:53;;;;;;;21.42;4.10;;;22.30;97.20;;;;;;5032818;28;20147;-65
2023/09/23 08:42:02;;;;;;;19.60;3.92;;;22.30;97.60;;;;;;5031522;28;20065;-65
2023/09/23 08:45:10;;;;;;;12.57;3.13;;;22.10;97.50;;;;;;5032163;28;20056;-65
2023/09/23 08:48:17;;;;;;;13.07;3.10;;;21.90;98.00;;;;;;5032959;28;20045;-66
2023/09/23 08:51:24;;;;;;;15.93;3.42;;;21.70;97.30;;;;;;5032537;28;20056;-67
2023/09/23 08:54:29;;;;;;;16.60;4.35;;;21.60;97.70;;;;;;5032510;28;20044;-64
2023/09/23 08:57:33;;;;;;;15.05;4.20;;;21.50;97.80;;;;;;5032194;28;20071;-65
2023/09/23 09:00:37;;;;;;;10.68;3.15;;;21.20;98.50;;;;;;5032821;28;20052;-65
2023/09/23 09:03:41;;;;;;;14.88;3.08;;;21.30;99.00;;;;;;5031889;28;20041;-66
2023/09/23 09:06:49;;;;;;;13.55;3.17;;;21.20;98.90;;;;;;5030655;28;20052;-65
2023/09/23 09:09:54;;;;;;;16.88;4.20;;;20.70;99.80;;;;;;5031361;28;20036;-65
2023/09/23 09:13:03;;;;;;;9.77;3.60;;;19.00;99.90;;;;;;5031578;28;20040;-65
2023/09/23 09:16:07;;;;;;;15.35;2.70;;;;;;;;;;5030587;28;20048;-67
2023/09/23 09:19:15;;;;;;;14.13;2.85;;;19.00;99.90;;;;;;5031067;28;20041;-67
2023/09/23 09:22:19;;;;;;;13.07;2.60;;;;;;;;;;5030798;28;20369;-65
2023/09/23 09:25:24;;;;;;;12.93;2.97;;;;;;;;;;5031466;28;20057;-66
2023/09/23 09:28:30;;;;;;;11.20;2.97;;;;;;;;;;5031588;28;20048;-66
2023/09/23 09:31:35;;;;;;;14.57;3.13;;;19.00;99.90;;;;;;5031609;28;20504;-66
2023/09/23 09:34:45;;;;;;;15.07;3.78;;;19.10;99.90;;;;;;5031952;28;20033;-67
2023/09/23 09:37:50;;;;;;;11.73;3.10;;;;;;;;;;5031595;28;20405;-66
2023/09/23 09:41:04;;;;;;;11.05;3.30;;;20.00;99.90;;;;;;5031515;28;20060;-66
2023/09/23 09:44:08;;;;;;;15.35;3.35;;;;;;;;;;5031426;28;20048;-66
2023/09/23 09:47:13;;;;;;;15.75;3.97;;;15.80;99.90;;;;;;5019069;28;20048;-66
2023/09/23 09:50:18;;;;;;;15.52;3.25;;;19.80;99.90;;;;;;5031391;28;20086;-66
2023/09/23 09:53:23;;;;;;;11.77;2.75;;;18.60;99.90;;;;;;5030906;28;20044;-67
2023/09/23 09:56:29;;;;;;;12.32;3.03;;;19.00;99.90;;;;;;5031506;28;20045;-66
2023/09/23 09:59:35;;;;;;;14.90;3.50;;;19.60;99.90;;;;;;5031140;28;20044;-67
2023/09/23 10:02:41;;;;;;;12.98;2.83;;;20.10;99.90;;;;;;5031314;28;20421;-68
2023/09/23 10:05:48;;;;;;;7.03;2.50;;;19.70;99.90;;;;;;5031073;28;20052;-67
2023/09/23 10:08:57;;;;;;;8.32;2.47;;;19.70;99.90;;;;;;5031788;28;20044;-69
2023/09/23 10:12:02;;;;;;;6.03;1.73;;;19.80;99.90;;;;;;5031267;28;20048;-69
2023/09/23 10:15:07;;;;;;;6.28;1.83;;;19.40;99.90;;;;;;5031204;28;20040;-68
2023/09/23 10:18:16;;;;;;;4.95;1.42;;;19.80;99.90;;;;;;5031202;28;20396;-67
2023/09/23 10:21:25;;;;;;;7.35;2.13;;;19.60;99.90;;;;;;5030993;28;20056;-67
2023/09/23 10:24:33;;;;;;;9.32;2.88;;;20.50;99.90;;;;;;5030884;28;20052;-66
2023/09/23 10:27:39;;;;;;;6.80;1.75;;;19.50;99.90;;;;;;5030978;28;20052;-68
2023/09/23 10:30:43;;;;;;;7.03;2.30;;;;;;;;;;5031013;28;20072;-68
2023/09/23 10:33:47;;;;;;;6.57;1.75;;;19.40;99.90;;;;;;5030913;28;20045;-66
2023/09/23 10:36:51;;;;;;;10.82;2.90;;;19.50;99.90;;;;;;5030739;28;20405;-67
2023/09/23 10:40:06;;;;;;;5.70;1.60;;;19.50;99.90;;;;;;5018723;28;20044;-69
2023/09/23 10:43:10;;;;;;;6.78;1.95;;;19.70;99.90;;;;;;5030844;28;20040;-69
2023/09/23 10:46:15;;;;;;;10.18;1.85;;;19.60;99.90;;;;;;5029690;28;20052;-68
2023/09/23 10:49:19;;;;;;;2.92;1.10;;;19.70;99.90;;;;;;5030396;28;20040;-68
2023/09/23 10:52:23;;;;;;;5.05;1.40;;;19.50;99.90;;;;;;5030204;28;20056;-69
2023/09/23 10:55:27;;;;;;;7.38;1.58;;;;;;;;;;5030373;28;20044;-68
2023/09/23 10:58:31;;;;;;;4.45;2.05;;;18.90;99.90;;;;;;5030731;28;20042;-68
2023/09/23 11:01:36;;;;;;;6.78;1.98;;;;;;;;;;5030561;28;20040;-69
2023/09/23 11:04:48;;;;;;;4.85;2.17;;;18.70;99.90;;;;;;5030500;28;20038;-69
2023/09/23 11:07:54;;;;;;;6.90;1.73;;;19.70;99.90;;;;;;5030290;28;20048;-69
2023/09/23 11:10:58;;;;;;;3.90;1.67;;;20.20;99.90;;;;;;5030353;28;20564;-69
2023/09/23 11:14:02;;;;;;;9.00;1.60;;;19.70;99.90;;;;;;5030341;28;20512;-69
2023/09/23 11:17:05;;;;;;;9.82;1.95;;;19.90;99.90;;;;;;5030200;28;20052;-69
2023/09/23 11:20:10;;;;;;;8.00;1.70;;;19.70;99.90;;;;;;5030219;28;20044;-69
2023/09/23 11:23:14;;;;;;;5.07;2.00;;;19.50;99.90;;;;;;5030262;28;20040;-69
2023/09/23 11:26:18;;;;;;;5.60;2.38;;;20.10;99.90;;;;;;5030083;28;20057;-69
2023/09/23 11:29:22;;;;;;;5.72;1.90;;;19.70;99.90;;;;;;5030537;28;20370;-69
2023/09/23 11:32:27;;;;;;;3.70;2.05;;;19.70;99.90;;;;;;5030533;28;20504;-68
2023/09/23 11:35:30;;;;;;;6.57;2.00;;;19.90;99.90;;;;;;5030134;28;20040;-68
2023/09/23 11:38:34;;;;;;;8.77;2.90;;;20.00;99.90;;;;;;5030260;28;20049;-69
2023/09/23 11:41:38;;;;;;;5.20;2.38;;;20.10;99.90;;;;;;5030242;28;20044;-68
2023/09/23 11:44:43;;;;;;;3.75;2.75;;;20.30;99.90;;;;;;5030170;28;20052;-68
2023/09/23 11:47:48;;;;;;;3.75;3.25;;;20.30;99.90;;;;;;5033595;28;20072;-69
2023/09/23 11:50:53;;;;;;;4.63;2.70;;;20.30;99.90;;;;;;5033290;28;20052;-68
2023/09/23 11:53:57;;;;;;;5.43;3.13;;;20.20;99.90;;;;;;5033829;28;20172;-69
2023/09/23 11:57:01;;;;;;;6.03;2.90;;;20.20;99.90;;;;;;5033662;28;20048;-68
2023/09/23 12:00:09;;;;;;;7.53;2.40;;;21.60;99.90;;;;;;5033523;28;20052;-68
2023/09/23 12:03:14;;;;;;;4.95;2.55;;;20.20;99.90;;;;;;5033161;28;20052;-69
2023/09/23 12:06:19;;;;;;;4.30;2.35;;;20.30;99.90;;;;;;5033067;28;20061;-69
2023/09/23 12:09:24;;;;;;;5.10;2.25;;;20.40;99.90;;;;;;5033262;28;20045;-69
2023/09/23 12:12:31;;;;;;;4.95;3.50;;;20.50;99.90;;;;;;5033217;28;20416;-71
2023/09/23 12:15:35;;;;;;;6.43;3.63;;;20.50;99.90;;;;;;5032636;28;20044;-70
2023/09/23 12:18:39;;;;;;;5.70;2.53;;;20.50;99.90;;;;;;5031549;28;20052;-69
2023/09/23 12:21:43;;;;;;;10.25;2.38;;;20.40;99.90;;;;;;5031689;28;20044;-69
2023/09/23 12:24:47;;;;;;;7.63;2.40;;;20.40;99.90;;;;;;5031753;28;20049;-69
2023/09/23 12:27:50;;;;;;;5.30;2.30;;;20.40;99.90;;;;;;5032629;28;20501;-70
2023/09/23 12:30:57;;;;;;;7.55;2.58;;;20.40;99.90;;;;;;5031096;28;20044;-70
2023/09/23 12:34:01;;;;;;;12.18;3.45;;;20.40;99.90;;;;;;5031456;28;20125;-69
2023/09/23 12:37:05;;;;;;;9.25;2.90;;;20.40;99.90;;;;;;5031113;28;20044;-69
2023/09/23 12:40:10;;;;;;;5.53;2.67;;;20.40;99.90;;;;;;5031088;28;20126;-69
2023/09/23 12:43:13;;;;;;;5.55;2.47;;;20.50;99.90;;;;;;5019110;28;20045;-69
2023/09/23 12:46:17;;;;;;;5.03;2.10;;;20.50;99.90;;;;;;5031143;28;20062;-69
2023/09/23 12:49:24;;;;;;;6.20;2.30;;;20.50;99.90;;;;;;5032271;28;20056;-69
2023/09/23 12:52:28;;;;;;;7.45;2.50;;;20.60;99.90;;;;;;5032684;28;20048;-69
2023/09/23 12:55:32;;;;;;;6.68;2.50;;;20.70;99.90;;;;;;5032546;28;20049;-70
2023/09/23 12:58:35;;;;;;;10.73;3.17;;;20.70;99.90;;;;;;5032682;28;20048;-70
2023/09/23 13:01:39;;;;;;;5.60;2.75;;;20.90;99.90;;;;;;5032390;28;20045;-70
2023/09/23 13:04:43;;;;;;;9.45;2.65;;;20.90;99.90;;;;;;5032148;28;20052;-70
2023/09/23 13:07:47;;;;;;;13.23;3.50;;;21.00;99.90;;;;;;5032331;28;20052;-70
2023/09/23 13:10:52;;;;;;;9.55;4.00;;;21.00;99.90;;;;;;5032051;28;20056;-70
2023/09/23 13:13:56;;;;;;;6.75;3.15;;;21.10;99.90;;;;;;5032188;28;20389;-70
2023/09/23 13:17:00;;;;;;;6.97;4.40;;;21.10;99.90;;;;;;5031839;28;20049;-70
2023/09/23 13:20:05;;;;;;;9.43;4.50;;;21.20;99.90;;;;;;5032123;28;20216;-70
2023/09/23 13:23:09;;;;;;;11.85;5.03;;;21.30;99.90;;;;;;5032036;28;20393;-70
2023/09/23 13:26:13;;;;;;;14.13;4.68;;;21.20;99.90;;;;;;5031633;28;20052;-69
2023/09/23 13:29:18;;;;;;;9.57;4.65;;;21.30;99.90;;;;;;5032096;28;20063;-69
2023/09/23 13:32:22;;;;;;;9.35;5.32;;;21.30;99.90;;;;;;5031984;28;20053;-70
2023/09/23 13:35:29;;;;;;;9.10;4.32;;;21.30;99.90;;;;;;5031550;28;20045;-69
2023/09/23 13:38:33;;;;;;;9.48;4.50;;;21.30;99.90;;;;;;5031838;28;20052;-70
2023/09/23 13:41:36;;;;;;;7.65;4.78;;;21.20;99.90;;;;;;5031803;28;20052;-69
2023/09/23 13:44:40;;;;;;;7.90;5.00;;;21.10;99.90;;;;;;5019614;28;20053;-69
2023/09/23 13:47:50;;;;;;;11.15;5.60;;;21.00;99.90;;;;;;5031651;28;20151;-70
2023/09/23 13:50:54;;;;;;;11.63;5.55;;;21.00;99.90;;;;;;5019022;28;20052;-69
2023/09/23 13:53:58;;;;;;;14.43;6.30;;;21.10;99.90;;;;;;5031344;28;20049;-70
2023/09/23 13:57:02;;;;;;;12.30;6.20;;;21.10;99.90;;;;;;5031495;28;20068;-69
2023/09/23 14:00:08;;;;;;;10.25;6.45;;;21.20;99.90;;;;;;5019117;28;20388;-69
2023/09/23 14:03:12;;;;;;;13.73;6.15;;;21.30;99.90;;;;;;5031341;28;20068;-69
2023/09/23 14:06:16;;;;;;;14.18;7.40;;;21.30;99.90;;;;;;5030843;28;20052;-70
2023/09/23 14:09:20;;;;;;;11.15;5.43;;;21.40;99.90;;;;;;5030591;28;20143;-68
2023/09/23 14:12:26;;;;;;;11.13;4.63;;;21.50;99.90;;;;;;5028836;28;20044;-68
2023/09/23 14:15:30;;;;;;;13.90;4.47;;;21.60;99.90;;;;;;5029422;28;20719;-68
2023/09/23 14:18:35;;;;;;;14.93;4.80;;;21.70;99.90;;;;;;5030599;28;20044;-72
2023/09/23 14:21:39;;;;;;;10.10;4.57;;;21.80;99.90;;;;;;5030510;28;20041;-71
2023/09/23 14:24:43;;;;;;;11.73;4.70;;;21.70;99.90;;;;;;5030383;28;20040;-69
2023/09/23 14:27:47;;;;;;;9.77;5.13;;;21.80;99.90;;;;;;5031142;28;20397;-70
2023/09/23 14:30:51;;;;;;;11.70;5.13;;;21.80;99.90;;;;;;5030647;28;20041;-71
2023/09/23 14:33:55;;;;;;;11.95;4.93;;;21.90;99.90;;;;;;5031278;28;20052;-70
2023/09/23 14:37:02;;;;;;;11.15;5.32;;;21.90;99.90;;;;;;5030869;28;20047;-70
2023/09/23 14:40:06;;;;;;;13.80;5.70;;;21.90;99.90;;;;;;5031030;28;20048;-70
2023/09/23 14:43:10;;;;;;;11.60;5.38;;;22.10;99.90;;;;;;5030573;28;20041;-70
2023/09/23 14:46:15;;;;;;;12.02;6.50;;;22.10;99.90;;;;;;5030848;28;20262;-71
2023/09/23 14:49:20;;;;;;;11.95;5.63;;;22.20;99.90;;;;;;5029353;28;20041;-70
2023/09/23 14:52:24;;;;;;;9.30;5.63;;;22.10;99.90;;;;;;5031169;28;20409;-70
2023/09/23 14:55:28;;;;;;;15.65;5.70;;;22.10;99.90;;;;;;5030546;28;20492;-70
2023/09/23 14:58:33;;;;;;;12.70;6.00;;;22.10;99.90;;;;;;5030716;28;20045;-70
2023/09/23 15:01:38;;;;;;;12.40;5.53;;;22.10;99.90;;;;;;5030843;28;20048;-70
2023/09/23 15:04:42;;;;;;;9.07;5.07;;;22.20;99.90;;;;;;5030601;28;20060;-72
2023/09/23 15:07:46;;;;;;;11.88;5.68;;;22.10;99.90;;;;;;5031120;28;20045;-70
2023/09/23 15:10:50;;;;;;;12.70;5.95;;;22.00;99.90;;;;;;5031057;28;20064;-70
2023/09/23 15:13:55;;;;;;;10.90;5.15;;;22.20;99.90;;;;;;5031099;28;20049;-70
2023/09/23 15:16:59;;;;;;;14.52;4.72;;;22.10;99.90;;;;;;5030795;28;20492;-71
2023/09/23 15:20:10;;;;;;;10.48;4.70;;;22.10;99.90;;;;;;5031358;28;20068;-70
2023/09/23 15:23:14;;;;;;;8.35;4.72;;;22.20;99.90;;;;;;5034476;28;20041;-70
2023/09/23 15:26:18;;;;;;;11.32;4.55;;;22.10;99.90;;;;;;5034304;28;20060;-69
2023/09/23 15:29:22;;;;;;;14.45;4.55;;;22.10;99.90;;;;;;5034626;28;20048;-71
2023/09/23 15:32:26;;;;;;;12.80;5.03;;;22.20;99.90;;;;;;5034309;28;20114;-69
2023/09/23 15:35:31;;;;;;;8.95;4.72;;;22.10;99.90;;;;;;5033773;28;20045;-74
2023/09/23 15:38:35;;;;;;;13.27;6.10;;;22.10;99.90;;;;;;5033347;28;20048;-76
2023/09/23 15:41:39;;;;;;;17.83;5.03;;;22.10;99.90;;;;;;5033766;28;20048;-76
2023/09/23 15:44:43;;;;;;;11.27;4.85;;;22.10;99.90;;;;;;5033792;28;20049;-76
2023/09/23 15:47:47;;;;;;;12.38;4.93;;;22.10;99.90;;;;;;5020897;28;20048;-76
2023/09/23 15:50:51;;;;;;;13.18;4.50;;;22.90;99.90;;;;;;5033457;28;20530;-75
2023/09/23 15:53:55;;;;;;;10.90;4.88;;;22.10;99.90;;;;;;5033591;28;20499;-76